sensor_id;sensor_type;location;lat;lon;timestamp;temperature;humidity
13928;DHT22;7036;50.834;4.718;2023-03-23T00:01:11;17.90;62.20
13928;DHT22;7036;50.834;4.718;2023-03-23T00:03:38;17.90;62.20
13928;DHT22;7036;50.834;4.718;2023-03-23T00:06:06;17.90;62.20
13928;DHT22;7036;50.834;4.718;2023-03-23T00:08:39;17.90;62.20
13928;DHT22;7036;50.834;4.718;2023-03-23T00:11:06;17.90;62.20
13928;DHT22;7036;50.834;4.718;2023-03-23T00:13:42;17.90;62.20
13928;DHT22;7036;50.834;4.718;2023-03-23T00:16:10;17.90;62.20
13928;DHT22;7036;50.834;4.718;2023-03-23T00:18:36;17.90;62.20
13928;DHT22;7036;50.834;4.718;2023-03-23T00:21:04;17.90;62.20
13928;DHT22;7036;50.834;4.718;2023-03-23T00:23:31;17.90;62.10
13928;DHT22;7036;50.834;4.718;2023-03-23T00:25:58;17.90;62.10
13928;DHT22;7036;50.834;4.718;2023-03-23T00:28:27;17.90;62.20
13928;DHT22;7036;50.834;4.718;2023-03-23T00:31:02;17.90;62.20
13928;DHT22;7036;50.834;4.718;2023-03-23T00:33:27;17.90;62.20
13928;DHT22;7036;50.834;4.718;2023-03-23T00:35:54;17.90;62.20
13928;DHT22;7036;50.834;4.718;2023-03-23T00:38:21;17.90;62.20
13928;DHT22;7036;50.834;4.718;2023-03-23T00:40:48;17.90;62.20
13928;DHT22;7036;50.834;4.718;2023-03-23T00:43:16;17.90;62.10
13928;DHT22;7036;50.834;4.718;2023-03-23T00:45:43;17.90;62.10
13928;DHT22;7036;50.834;4.718;2023-03-23T00:48:10;17.80;62.10
13928;DHT22;7036;50.834;4.718;2023-03-23T00:50:38;17.90;62.20
13928;DHT22;7036;50.834;4.718;2023-03-23T00:53:06;17.90;62.20
13928;DHT22;7036;50.834;4.718;2023-03-23T00:55:32;17.80;62.10
13928;DHT22;7036;50.834;4.718;2023-03-23T00:58:00;17.80;62.20
13928;DHT22;7036;50.834;4.718;2023-03-23T01:00:27;17.80;62.20
13928;DHT22;7036;50.834;4.718;2023-03-23T01:02:54;17.80;62.20
13928;DHT22;7036;50.834;4.718;2023-03-23T01:05:21;17.80;62.20
13928;DHT22;7036;50.834;4.718;2023-03-23T01:07:49;17.80;62.10
13928;DHT22;7036;50.834;4.718;2023-03-23T01:10:16;17.90;62.10
13928;DHT22;7036;50.834;4.718;2023-03-23T01:12:44;17.90;62.00
13928;DHT22;7036;50.834;4.718;2023-03-23T01:15:15;17.80;62.00
13928;DHT22;7036;50.834;4.718;2023-03-23T01:17:41;17.80;62.10
13928;DHT22;7036;50.834;4.718;2023-03-23T01:20:07;17.80;62.10
13928;DHT22;7036;50.834;4.718;2023-03-23T01:22:35;17.80;62.10
13928;DHT22;7036;50.834;4.718;2023-03-23T01:25:03;17.80;62.10
13928;DHT22;7036;50.834;4.718;2023-03-23T01:27:30;17.80;62.20
13928;DHT22;7036;50.834;4.718;2023-03-23T01:29:57;17.80;62.10
13928;DHT22;7036;50.834;4.718;2023-03-23T01:32:24;17.80;62.20
13928;DHT22;7036;50.834;4.718;2023-03-23T01:34:51;17.80;62.10
13928;DHT22;7036;50.834;4.718;2023-03-23T01:37:20;17.80;62.20
13928;DHT22;7036;50.834;4.718;2023-03-23T01:39:46;17.80;62.10
13928;DHT22;7036;50.834;4.718;2023-03-23T01:42:14;17.80;62.10
13928;DHT22;7036;50.834;4.718;2023-03-23T01:47:10;17.80;62.10
13928;DHT22;7036;50.834;4.718;2023-03-23T01:49:38;17.80;62.10
13928;DHT22;7036;50.834;4.718;2023-03-23T01:52:11;17.70;62.00
13928;DHT22;7036;50.834;4.718;2023-03-23T01:54:35;17.80;62.20
13928;DHT22;7036;50.834;4.718;2023-03-23T01:57:10;17.70;62.10
13928;DHT22;7036;50.834;4.718;2023-03-23T01:59:34;17.70;62.00
13928;DHT22;7036;50.834;4.718;2023-03-23T02:02:01;17.70;62.10
13928;DHT22;7036;50.834;4.718;2023-03-23T02:04:28;17.70;62.10
13928;DHT22;7036;50.834;4.718;2023-03-23T02:06:55;17.70;62.10
13928;DHT22;7036;50.834;4.718;2023-03-23T02:09:26;17.70;62.00
13928;DHT22;7036;50.834;4.718;2023-03-23T02:11:50;17.70;62.10
13928;DHT22;7036;50.834;4.718;2023-03-23T02:14:17;17.70;62.10
13928;DHT22;7036;50.834;4.718;2023-03-23T02:33:55;17.70;62.00
13928;DHT22;7036;50.834;4.718;2023-03-23T02:36:39;17.70;62.00
13928;DHT22;7036;50.834;4.718;2023-03-23T02:39:17;17.70;62.00
13928;DHT22;7036;50.834;4.718;2023-03-23T02:41:45;17.70;62.00
13928;DHT22;7036;50.834;4.718;2023-03-23T02:44:10;17.70;62.00
13928;DHT22;7036;50.834;4.718;2023-03-23T02:46:37;17.70;62.00
13928;DHT22;7036;50.834;4.718;2023-03-23T02:49:04;17.70;62.00
13928;DHT22;7036;50.834;4.718;2023-03-23T02:51:31;17.70;62.00
13928;DHT22;7036;50.834;4.718;2023-03-23T02:53:58;17.70;62.00
13928;DHT22;7036;50.834;4.718;2023-03-23T02:56:26;17.70;62.00
13928;DHT22;7036;50.834;4.718;2023-03-23T02:58:53;17.70;62.00
13928;DHT22;7036;50.834;4.718;2023-03-23T03:03:53;17.70;62.00
13928;DHT22;7036;50.834;4.718;2023-03-23T03:09:16;17.70;62.00
13928;DHT22;7036;50.834;4.718;2023-03-23T03:11:42;17.70;62.00
13928;DHT22;7036;50.834;4.718;2023-03-23T03:14:10;17.70;62.00
13928;DHT22;7036;50.834;4.718;2023-03-23T03:16:37;17.70;62.00
13928;DHT22;7036;50.834;4.718;2023-03-23T03:19:22;17.70;62.00
13928;DHT22;7036;50.834;4.718;2023-03-23T03:21:45;17.70;62.00
13928;DHT22;7036;50.834;4.718;2023-03-23T03:24:13;17.70;62.00
13928;DHT22;7036;50.834;4.718;2023-03-23T03:26:40;17.70;62.60
13928;DHT22;7036;50.834;4.718;2023-03-23T03:29:06;17.70;61.90
13928;DHT22;7036;50.834;4.718;2023-03-23T03:31:35;17.70;61.80
13928;DHT22;7036;50.834;4.718;2023-03-23T03:34:01;17.70;61.80
13928;DHT22;7036;50.834;4.718;2023-03-23T03:36:28;17.70;61.80
13928;DHT22;7036;50.834;4.718;2023-03-23T03:38:55;17.70;61.80
13928;DHT22;7036;50.834;4.718;2023-03-23T03:41:22;17.70;61.80
13928;DHT22;7036;50.834;4.718;2023-03-23T03:43:49;17.70;61.90
13928;DHT22;7036;50.834;4.718;2023-03-23T03:46:17;17.70;61.90
13928;DHT22;7036;50.834;4.718;2023-03-23T03:48:45;17.70;61.90
13928;DHT22;7036;50.834;4.718;2023-03-23T03:51:11;17.70;61.80
13928;DHT22;7036;50.834;4.718;2023-03-23T03:53:39;17.70;61.90
13928;DHT22;7036;50.834;4.718;2023-03-23T03:56:06;17.70;61.90
13928;DHT22;7036;50.834;4.718;2023-03-23T03:58:33;17.70;62.00
13928;DHT22;7036;50.834;4.718;2023-03-23T04:01:00;17.70;61.90
13928;DHT22;7036;50.834;4.718;2023-03-23T04:03:28;17.70;61.90
13928;DHT22;7036;50.834;4.718;2023-03-23T04:05:55;17.70;61.80
13928;DHT22;7036;50.834;4.718;2023-03-23T04:08:22;17.70;61.90
13928;DHT22;7036;50.834;4.718;2023-03-23T04:10:49;17.70;61.90
13928;DHT22;7036;50.834;4.718;2023-03-23T04:13:16;17.70;61.90
13928;DHT22;7036;50.834;4.718;2023-03-23T04:15:44;17.70;61.90
13928;DHT22;7036;50.834;4.718;2023-03-23T04:18:11;17.70;61.90
13928;DHT22;7036;50.834;4.718;2023-03-23T04:20:39;17.70;61.90
13928;DHT22;7036;50.834;4.718;2023-03-23T04:23:06;17.60;61.80
13928;DHT22;7036;50.834;4.718;2023-03-23T04:25:33;17.60;61.80
13928;DHT22;7036;50.834;4.718;2023-03-23T04:28:00;17.60;61.80
13928;DHT22;7036;50.834;4.718;2023-03-23T04:30:28;17.60;61.80
13928;DHT22;7036;50.834;4.718;2023-03-23T04:32:55;17.60;61.80
13928;DHT22;7036;50.834;4.718;2023-03-23T04:35:23;17.60;61.80
13928;DHT22;7036;50.834;4.718;2023-03-23T04:37:49;17.60;61.80
13928;DHT22;7036;50.834;4.718;2023-03-23T04:40:16;17.60;61.80
13928;DHT22;7036;50.834;4.718;2023-03-23T04:42:44;17.60;61.80
13928;DHT22;7036;50.834;4.718;2023-03-23T04:45:21;17.60;61.80
13928;DHT22;7036;50.834;4.718;2023-03-23T04:48:06;17.60;61.80
13928;DHT22;7036;50.834;4.718;2023-03-23T04:50:43;17.60;61.90
13928;DHT22;7036;50.834;4.718;2023-03-23T04:53:13;17.60;61.80
13928;DHT22;7036;50.834;4.718;2023-03-23T04:55:40;17.60;61.70
13928;DHT22;7036;50.834;4.718;2023-03-23T04:58:08;17.60;61.80
13928;DHT22;7036;50.834;4.718;2023-03-23T05:00:35;17.60;61.80
13928;DHT22;7036;50.834;4.718;2023-03-23T05:03:02;17.60;61.80
13928;DHT22;7036;50.834;4.718;2023-03-23T05:05:29;17.60;61.80
13928;DHT22;7036;50.834;4.718;2023-03-23T05:07:56;17.60;61.70
13928;DHT22;7036;50.834;4.718;2023-03-23T05:10:23;17.60;61.70
13928;DHT22;7036;50.834;4.718;2023-03-23T05:12:52;17.60;61.70
13928;DHT22;7036;50.834;4.718;2023-03-23T05:15:18;17.60;61.70
13928;DHT22;7036;50.834;4.718;2023-03-23T05:17:45;17.60;61.80
13928;DHT22;7036;50.834;4.718;2023-03-23T05:20:13;17.60;61.80
13928;DHT22;7036;50.834;4.718;2023-03-23T05:22:40;17.60;61.80
13928;DHT22;7036;50.834;4.718;2023-03-23T05:25:07;17.60;61.80
13928;DHT22;7036;50.834;4.718;2023-03-23T05:27:34;17.60;61.70
13928;DHT22;7036;50.834;4.718;2023-03-23T05:30:01;17.60;61.70
13928;DHT22;7036;50.834;4.718;2023-03-23T05:32:28;17.60;61.70
13928;DHT22;7036;50.834;4.718;2023-03-23T05:34:55;17.60;61.80
13928;DHT22;7036;50.834;4.718;2023-03-23T05:37:24;17.60;62.50
13928;DHT22;7036;50.834;4.718;2023-03-23T05:39:51;17.60;61.80
13928;DHT22;7036;50.834;4.718;2023-03-23T05:42:18;17.50;61.70
13928;DHT22;7036;50.834;4.718;2023-03-23T05:44:45;17.60;61.80
13928;DHT22;7036;50.834;4.718;2023-03-23T05:47:14;17.50;61.60
13928;DHT22;7036;50.834;4.718;2023-03-23T05:49:40;17.60;61.80
13928;DHT22;7036;50.834;4.718;2023-03-23T05:52:08;17.60;61.70
13928;DHT22;7036;50.834;4.718;2023-03-23T05:54:35;17.60;61.70
13928;DHT22;7036;50.834;4.718;2023-03-23T05:57:02;17.60;61.70
13928;DHT22;7036;50.834;4.718;2023-03-23T05:59:29;17.60;61.60
13928;DHT22;7036;50.834;4.718;2023-03-23T06:01:56;17.60;61.70
13928;DHT22;7036;50.834;4.718;2023-03-23T06:04:24;17.60;61.60
13928;DHT22;7036;50.834;4.718;2023-03-23T06:06:51;17.60;61.60
13928;DHT22;7036;50.834;4.718;2023-03-23T06:09:20;17.60;62.40
13928;DHT22;7036;50.834;4.718;2023-03-23T06:11:47;17.50;61.60
13928;DHT22;7036;50.834;4.718;2023-03-23T06:14:14;17.50;61.60
13928;DHT22;7036;50.834;4.718;2023-03-23T06:16:42;17.50;61.60
13928;DHT22;7036;50.834;4.718;2023-03-23T06:19:09;17.50;61.60
13928;DHT22;7036;50.834;4.718;2023-03-23T06:21:36;17.50;61.60
13928;DHT22;7036;50.834;4.718;2023-03-23T06:24:04;17.50;61.60
13928;DHT22;7036;50.834;4.718;2023-03-23T06:26:35;17.50;61.60
13928;DHT22;7036;50.834;4.718;2023-03-23T06:29:00;17.50;61.50
13928;DHT22;7036;50.834;4.718;2023-03-23T06:31:41;17.50;61.60
13928;DHT22;7036;50.834;4.718;2023-03-23T06:34:07;17.50;61.50
13928;DHT22;7036;50.834;4.718;2023-03-23T06:36:35;17.50;61.70
13928;DHT22;7036;50.834;4.718;2023-03-23T06:39:03;17.50;61.70
13928;DHT22;7036;50.834;4.718;2023-03-23T06:41:31;17.50;61.60
13928;DHT22;7036;50.834;4.718;2023-03-23T06:43:58;17.50;61.60
13928;DHT22;7036;50.834;4.718;2023-03-23T06:46:26;17.50;61.70
13928;DHT22;7036;50.834;4.718;2023-03-23T06:48:54;17.50;61.70
13928;DHT22;7036;50.834;4.718;2023-03-23T06:51:21;17.50;61.70
13928;DHT22;7036;50.834;4.718;2023-03-23T06:53:50;17.50;62.20
13928;DHT22;7036;50.834;4.718;2023-03-23T06:56:19;17.50;61.50
13928;DHT22;7036;50.834;4.718;2023-03-23T06:58:46;17.50;61.50
13928;DHT22;7036;50.834;4.718;2023-03-23T07:01:14;17.50;61.70
13928;DHT22;7036;50.834;4.718;2023-03-23T07:03:42;17.50;62.10
13928;DHT22;7036;50.834;4.718;2023-03-23T07:06:10;17.50;61.70
13928;DHT22;7036;50.834;4.718;2023-03-23T07:08:40;17.50;61.60
13928;DHT22;7036;50.834;4.718;2023-03-23T07:11:07;17.50;61.50
13928;DHT22;7036;50.834;4.718;2023-03-23T07:13:34;17.50;60.90
13928;DHT22;7036;50.834;4.718;2023-03-23T07:16:04;17.50;61.60
13928;DHT22;7036;50.834;4.718;2023-03-23T07:18:29;17.50;61.50
13928;DHT22;7036;50.834;4.718;2023-03-23T07:20:56;17.50;61.60
13928;DHT22;7036;50.834;4.718;2023-03-23T07:23:24;17.50;61.60
13928;DHT22;7036;50.834;4.718;2023-03-23T07:25:52;17.50;61.50
13928;DHT22;7036;50.834;4.718;2023-03-23T07:28:20;17.50;61.70
13928;DHT22;7036;50.834;4.718;2023-03-23T07:30:48;17.50;61.70
13928;DHT22;7036;50.834;4.718;2023-03-23T07:33:16;17.50;61.70
13928;DHT22;7036;50.834;4.718;2023-03-23T07:35:44;17.50;61.70
13928;DHT22;7036;50.834;4.718;2023-03-23T07:38:12;17.50;61.70
13928;DHT22;7036;50.834;4.718;2023-03-23T07:40:39;17.40;61.50
13928;DHT22;7036;50.834;4.718;2023-03-23T07:43:07;17.50;61.60
13928;DHT22;7036;50.834;4.718;2023-03-23T07:45:35;17.50;61.60
13928;DHT22;7036;50.834;4.718;2023-03-23T07:48:03;17.50;61.60
13928;DHT22;7036;50.834;4.718;2023-03-23T07:50:31;17.50;61.70
13928;DHT22;7036;50.834;4.718;2023-03-23T07:52:59;17.50;61.70
13928;DHT22;7036;50.834;4.718;2023-03-23T07:55:27;17.50;61.80
13928;DHT22;7036;50.834;4.718;2023-03-23T07:57:55;17.50;61.70
13928;DHT22;7036;50.834;4.718;2023-03-23T08:00:23;17.50;61.70
13928;DHT22;7036;50.834;4.718;2023-03-23T08:02:51;17.50;61.50
13928;DHT22;7036;50.834;4.718;2023-03-23T08:05:18;17.60;61.70
13928;DHT22;7036;50.834;4.718;2023-03-23T08:07:45;17.50;61.40
13928;DHT22;7036;50.834;4.718;2023-03-23T08:10:14;17.70;61.30
13928;DHT22;7036;50.834;4.718;2023-03-23T08:12:42;17.70;61.40
13928;DHT22;7036;50.834;4.718;2023-03-23T08:15:10;17.80;61.30
13928;DHT22;7036;50.834;4.718;2023-03-23T08:17:36;17.80;61.20
13928;DHT22;7036;50.834;4.718;2023-03-23T08:20:05;17.90;61.30
13928;DHT22;7036;50.834;4.718;2023-03-23T08:22:32;17.90;61.20
13928;DHT22;7036;50.834;4.718;2023-03-23T08:24:59;17.90;61.10
13928;DHT22;7036;50.834;4.718;2023-03-23T08:27:26;18.00;61.10
13928;DHT22;7036;50.834;4.718;2023-03-23T08:29:53;18.00;61.10
13928;DHT22;7036;50.834;4.718;2023-03-23T08:32:21;18.00;61.10
13928;DHT22;7036;50.834;4.718;2023-03-23T08:34:49;18.00;61.20
13928;DHT22;7036;50.834;4.718;2023-03-23T08:37:16;18.00;61.10
13928;DHT22;7036;50.834;4.718;2023-03-23T08:39:46;18.00;61.30
13928;DHT22;7036;50.834;4.718;2023-03-23T08:42:14;18.00;61.30
13928;DHT22;7036;50.834;4.718;2023-03-23T08:44:41;18.00;61.20
13928;DHT22;7036;50.834;4.718;2023-03-23T08:47:09;18.00;61.30
13928;DHT22;7036;50.834;4.718;2023-03-23T08:49:37;18.00;61.30
13928;DHT22;7036;50.834;4.718;2023-03-23T08:52:05;18.00;61.30
13928;DHT22;7036;50.834;4.718;2023-03-23T08:54:33;18.00;61.30
13928;DHT22;7036;50.834;4.718;2023-03-23T08:57:01;18.00;61.20
13928;DHT22;7036;50.834;4.718;2023-03-23T08:59:28;18.00;61.30
13928;DHT22;7036;50.834;4.718;2023-03-23T09:01:55;18.00;61.30
13928;DHT22;7036;50.834;4.718;2023-03-23T09:04:23;18.00;61.50
13928;DHT22;7036;50.834;4.718;2023-03-23T09:06:51;18.00;61.40
13928;DHT22;7036;50.834;4.718;2023-03-23T09:09:19;18.10;61.50
13928;DHT22;7036;50.834;4.718;2023-03-23T09:11:46;18.10;61.60
13928;DHT22;7036;50.834;4.718;2023-03-23T09:14:14;18.10;61.50
13928;DHT22;7036;50.834;4.718;2023-03-23T09:16:42;18.10;61.50
13928;DHT22;7036;50.834;4.718;2023-03-23T09:19:10;18.10;61.50
13928;DHT22;7036;50.834;4.718;2023-03-23T09:21:38;18.10;61.40
13928;DHT22;7036;50.834;4.718;2023-03-23T09:24:06;18.20;61.50
13928;DHT22;7036;50.834;4.718;2023-03-23T09:26:33;18.20;61.30
13928;DHT22;7036;50.834;4.718;2023-03-23T09:29:00;18.20;62.00
13928;DHT22;7036;50.834;4.718;2023-03-23T09:31:28;18.20;61.40
13928;DHT22;7036;50.834;4.718;2023-03-23T09:33:56;18.20;61.40
13928;DHT22;7036;50.834;4.718;2023-03-23T09:36:23;18.20;61.20
13928;DHT22;7036;50.834;4.718;2023-03-23T09:38:52;18.20;61.40
13928;DHT22;7036;50.834;4.718;2023-03-23T09:46:55;18.20;61.30
13928;DHT22;7036;50.834;4.718;2023-03-23T09:49:31;18.30;61.40
13928;DHT22;7036;50.834;4.718;2023-03-23T09:51:51;18.30;61.50
13928;DHT22;7036;50.834;4.718;2023-03-23T09:54:19;18.30;61.50
13928;DHT22;7036;50.834;4.718;2023-03-23T09:56:45;18.30;61.30
13928;DHT22;7036;50.834;4.718;2023-03-23T10:01:50;18.30;61.30
13928;DHT22;7036;50.834;4.718;2023-03-23T10:07:14;18.30;61.30
13928;DHT22;7036;50.834;4.718;2023-03-23T10:09:41;18.30;61.30
13928;DHT22;7036;50.834;4.718;2023-03-23T10:12:38;18.20;61.50
13928;DHT22;7036;50.834;4.718;2023-03-23T10:15:18;18.30;61.50
13928;DHT22;7036;50.834;4.718;2023-03-23T10:17:56;18.30;61.50
13928;DHT22;7036;50.834;4.718;2023-03-23T10:20:47;18.20;61.40
13928;DHT22;7036;50.834;4.718;2023-03-23T10:26:08;18.20;61.30
13928;DHT22;7036;50.834;4.718;2023-03-23T10:28:16;18.20;61.50
13928;DHT22;7036;50.834;4.718;2023-03-23T10:30:58;18.20;61.40
13928;DHT22;7036;50.834;4.718;2023-03-23T10:35:50;18.30;61.30
13928;DHT22;7036;50.834;4.718;2023-03-23T10:38:23;18.30;61.40
13928;DHT22;7036;50.834;4.718;2023-03-23T10:40:54;18.30;61.40
13928;DHT22;7036;50.834;4.718;2023-03-23T10:43:20;18.30;61.30
13928;DHT22;7036;50.834;4.718;2023-03-23T10:45:49;18.30;61.30
13928;DHT22;7036;50.834;4.718;2023-03-23T10:48:26;18.30;61.40
13928;DHT22;7036;50.834;4.718;2023-03-23T10:50:52;18.30;61.50
13928;DHT22;7036;50.834;4.718;2023-03-23T10:53:38;18.30;61.50
13928;DHT22;7036;50.834;4.718;2023-03-23T10:56:05;18.30;61.40
13928;DHT22;7036;50.834;4.718;2023-03-23T10:58:32;18.30;61.40
13928;DHT22;7036;50.834;4.718;2023-03-23T11:01:00;18.30;61.50
13928;DHT22;7036;50.834;4.718;2023-03-23T11:03:42;18.30;61.60
13928;DHT22;7036;50.834;4.718;2023-03-23T11:06:21;18.40;61.60
13928;DHT22;7036;50.834;4.718;2023-03-23T11:09:03;18.40;61.60
13928;DHT22;7036;50.834;4.718;2023-03-23T11:11:30;18.40;61.80
13928;DHT22;7036;50.834;4.718;2023-03-23T11:14:01;18.40;61.70
13928;DHT22;7036;50.834;4.718;2023-03-23T11:16:31;18.40;61.70
13928;DHT22;7036;50.834;4.718;2023-03-23T11:19:00;18.40;61.80
13928;DHT22;7036;50.834;4.718;2023-03-23T11:21:27;18.40;61.90
13928;DHT22;7036;50.834;4.718;2023-03-23T11:23:58;18.40;61.80
13928;DHT22;7036;50.834;4.718;2023-03-23T11:26:26;18.40;61.90
13928;DHT22;7036;50.834;4.718;2023-03-23T11:31:24;18.50;61.90
13928;DHT22;7036;50.834;4.718;2023-03-23T11:34:00;18.40;61.80
13928;DHT22;7036;50.834;4.718;2023-03-23T11:36:35;18.50;62.00
13928;DHT22;7036;50.834;4.718;2023-03-23T11:39:02;18.40;61.90
13928;DHT22;7036;50.834;4.718;2023-03-23T11:41:32;18.50;62.00
13928;DHT22;7036;50.834;4.718;2023-03-23T11:43:57;18.50;62.10
13928;DHT22;7036;50.834;4.718;2023-03-23T11:49:22;18.50;62.00
13928;DHT22;7036;50.834;4.718;2023-03-23T11:51:50;18.50;62.10
13928;DHT22;7036;50.834;4.718;2023-03-23T11:54:33;18.50;62.30
13928;DHT22;7036;50.834;4.718;2023-03-23T11:57:00;18.50;62.10
13928;DHT22;7036;50.834;4.718;2023-03-23T11:59:29;18.50;62.80
13928;DHT22;7036;50.834;4.718;2023-03-23T12:10:34;18.50;61.30
13928;DHT22;7036;50.834;4.718;2023-03-23T12:16:00;18.50;61.60
13928;DHT22;7036;50.834;4.718;2023-03-23T12:18:40;18.50;62.30
13928;DHT22;7036;50.834;4.718;2023-03-23T12:24:30;18.50;62.10
13928;DHT22;7036;50.834;4.718;2023-03-23T12:27:16;18.50;62.00
13928;DHT22;7036;50.834;4.718;2023-03-23T12:29:49;18.50;62.10
13928;DHT22;7036;50.834;4.718;2023-03-23T12:32:44;18.50;62.10
13928;DHT22;7036;50.834;4.718;2023-03-23T12:40:33;18.60;62.30
13928;DHT22;7036;50.834;4.718;2023-03-23T12:42:59;18.70;62.20
13928;DHT22;7036;50.834;4.718;2023-03-23T12:46:09;18.70;62.30
13928;DHT22;7036;50.834;4.718;2023-03-23T12:48:32;18.80;62.30
13928;DHT22;7036;50.834;4.718;2023-03-23T12:51:21;18.80;63.10
13928;DHT22;7036;50.834;4.718;2023-03-23T12:53:53;18.80;62.30
13928;DHT22;7036;50.834;4.718;2023-03-23T12:58:49;18.80;62.40
13928;DHT22;7036;50.834;4.718;2023-03-23T13:01:17;18.80;62.20
13928;DHT22;7036;50.834;4.718;2023-03-23T13:03:46;18.80;62.30
13928;DHT22;7036;50.834;4.718;2023-03-23T13:06:27;18.80;62.30
13928;DHT22;7036;50.834;4.718;2023-03-23T13:08:56;18.80;62.30
13928;DHT22;7036;50.834;4.718;2023-03-23T13:11:32;18.80;62.30
13928;DHT22;7036;50.834;4.718;2023-03-23T13:13:53;18.80;62.50
13928;DHT22;7036;50.834;4.718;2023-03-23T13:19:14;18.80;62.70
13928;DHT22;7036;50.834;4.718;2023-03-23T13:21:41;18.80;62.60
13928;DHT22;7036;50.834;4.718;2023-03-23T13:24:10;18.80;62.50
13928;DHT22;7036;50.834;4.718;2023-03-23T13:26:37;18.80;62.70
13928;DHT22;7036;50.834;4.718;2023-03-23T13:29:28;18.80;62.60
13928;DHT22;7036;50.834;4.718;2023-03-23T13:31:39;18.80;62.60
13928;DHT22;7036;50.834;4.718;2023-03-23T13:36:52;18.80;62.70
13928;DHT22;7036;50.834;4.718;2023-03-23T13:39:18;18.80;62.70
13928;DHT22;7036;50.834;4.718;2023-03-23T13:47:25;18.80;62.60
13928;DHT22;7036;50.834;4.718;2023-03-23T13:49:53;18.80;62.70
13928;DHT22;7036;50.834;4.718;2023-03-23T13:57:54;18.80;62.60
13928;DHT22;7036;50.834;4.718;2023-03-23T14:05:44;18.80;62.50
13928;DHT22;7036;50.834;4.718;2023-03-23T14:08:21;18.70;62.60
13928;DHT22;7036;50.834;4.718;2023-03-23T14:10:51;18.70;62.40
13928;DHT22;7036;50.834;4.718;2023-03-23T14:14:04;18.70;62.40
13928;DHT22;7036;50.834;4.718;2023-03-23T14:16:04;18.70;62.60
13928;DHT22;7036;50.834;4.718;2023-03-23T14:18:38;18.70;62.50
13928;DHT22;7036;50.834;4.718;2023-03-23T14:21:05;18.80;62.60
13928;DHT22;7036;50.834;4.718;2023-03-23T14:23:32;18.80;62.40
13928;DHT22;7036;50.834;4.718;2023-03-23T14:26:00;18.80;62.50
13928;DHT22;7036;50.834;4.718;2023-03-23T14:28:27;18.80;62.40
13928;DHT22;7036;50.834;4.718;2023-03-23T14:30:54;18.80;62.50
13928;DHT22;7036;50.834;4.718;2023-03-23T14:33:22;18.80;62.60
13928;DHT22;7036;50.834;4.718;2023-03-23T14:35:49;18.80;62.40
13928;DHT22;7036;50.834;4.718;2023-03-23T14:38:18;18.80;62.40
13928;DHT22;7036;50.834;4.718;2023-03-23T14:40:44;18.80;62.50
13928;DHT22;7036;50.834;4.718;2023-03-23T14:43:12;18.80;62.40
13928;DHT22;7036;50.834;4.718;2023-03-23T14:45:38;18.80;62.30
13928;DHT22;7036;50.834;4.718;2023-03-23T14:48:06;18.80;62.40
13928;DHT22;7036;50.834;4.718;2023-03-23T14:50:37;18.80;62.40
13928;DHT22;7036;50.834;4.718;2023-03-23T14:53:11;18.80;62.30
13928;DHT22;7036;50.834;4.718;2023-03-23T14:55:31;18.80;62.50
13928;DHT22;7036;50.834;4.718;2023-03-23T14:58:13;18.70;62.30
13928;DHT22;7036;50.834;4.718;2023-03-23T15:00:41;18.70;62.40
13928;DHT22;7036;50.834;4.718;2023-03-23T15:03:10;18.70;62.30
13928;DHT22;7036;50.834;4.718;2023-03-23T15:05:35;18.70;62.20
13928;DHT22;7036;50.834;4.718;2023-03-23T15:08:13;18.70;62.30
13928;DHT22;7036;50.834;4.718;2023-03-23T15:10:38;18.70;62.30
13928;DHT22;7036;50.834;4.718;2023-03-23T15:13:05;18.70;62.30
13928;DHT22;7036;50.834;4.718;2023-03-23T15:15:34;18.70;62.40
13928;DHT22;7036;50.834;4.718;2023-03-23T15:18:01;18.80;62.30
13928;DHT22;7036;50.834;4.718;2023-03-23T15:20:30;18.70;62.30
13928;DHT22;7036;50.834;4.718;2023-03-23T15:23:04;18.80;62.50
13928;DHT22;7036;50.834;4.718;2023-03-23T15:30:45;18.70;62.20
13928;DHT22;7036;50.834;4.718;2023-03-23T15:33:09;18.80;62.10
13928;DHT22;7036;50.834;4.718;2023-03-23T15:35:36;18.80;62.20
13928;DHT22;7036;50.834;4.718;2023-03-23T15:38:13;18.80;62.30
13928;DHT22;7036;50.834;4.718;2023-03-23T15:40:35;18.80;62.30
13928;DHT22;7036;50.834;4.718;2023-03-23T15:43:24;18.80;62.20
13928;DHT22;7036;50.834;4.718;2023-03-23T15:48:50;18.80;62.10
13928;DHT22;7036;50.834;4.718;2023-03-23T15:51:17;18.80;62.10
13928;DHT22;7036;50.834;4.718;2023-03-23T15:53:45;18.80;62.20
13928;DHT22;7036;50.834;4.718;2023-03-23T15:56:12;18.80;62.10
13928;DHT22;7036;50.834;4.718;2023-03-23T15:58:39;18.80;62.10
13928;DHT22;7036;50.834;4.718;2023-03-23T16:01:17;18.70;62.00
13928;DHT22;7036;50.834;4.718;2023-03-23T16:03:46;18.70;62.00
13928;DHT22;7036;50.834;4.718;2023-03-23T16:06:13;18.70;62.00
13928;DHT22;7036;50.834;4.718;2023-03-23T16:08:40;18.70;62.10
13928;DHT22;7036;50.834;4.718;2023-03-23T16:11:14;18.70;62.10
13928;DHT22;7036;50.834;4.718;2023-03-23T16:13:38;18.70;62.00
13928;DHT22;7036;50.834;4.718;2023-03-23T16:16:08;18.70;62.00
13928;DHT22;7036;50.834;4.718;2023-03-23T16:18:33;18.70;62.00
13928;DHT22;7036;50.834;4.718;2023-03-23T16:21:00;18.70;61.80
13928;DHT22;7036;50.834;4.718;2023-03-23T16:23:28;18.60;62.10
13928;DHT22;7036;50.834;4.718;2023-03-23T16:25:56;18.60;62.00
13928;DHT22;7036;50.834;4.718;2023-03-23T16:28:23;18.60;62.00
13928;DHT22;7036;50.834;4.718;2023-03-23T16:30:51;18.60;62.80
13928;DHT22;7036;50.834;4.718;2023-03-23T16:33:18;18.60;62.00
13928;DHT22;7036;50.834;4.718;2023-03-23T16:35:45;18.60;62.10
13928;DHT22;7036;50.834;4.718;2023-03-23T16:38:13;18.60;62.00
13928;DHT22;7036;50.834;4.718;2023-03-23T16:40:39;18.60;62.20
13928;DHT22;7036;50.834;4.718;2023-03-23T16:43:07;18.60;62.10
13928;DHT22;7036;50.834;4.718;2023-03-23T16:45:37;18.60;62.20
13928;DHT22;7036;50.834;4.718;2023-03-23T16:48:02;18.60;62.10
13928;DHT22;7036;50.834;4.718;2023-03-23T16:50:29;18.70;62.10
13928;DHT22;7036;50.834;4.718;2023-03-23T16:52:57;18.80;62.50
13928;DHT22;7036;50.834;4.718;2023-03-23T16:55:24;18.70;62.20
13928;DHT22;7036;50.834;4.718;2023-03-23T16:57:53;18.80;62.50
13928;DHT22;7036;50.834;4.718;2023-03-23T17:00:19;18.80;62.50
13928;DHT22;7036;50.834;4.718;2023-03-23T17:02:48;18.90;62.60
13928;DHT22;7036;50.834;4.718;2023-03-23T17:05:15;18.90;62.60
13928;DHT22;7036;50.834;4.718;2023-03-23T17:07:42;18.90;62.50
13928;DHT22;7036;50.834;4.718;2023-03-23T17:10:09;18.90;62.70
13928;DHT22;7036;50.834;4.718;2023-03-23T17:12:36;18.90;62.40
13928;DHT22;7036;50.834;4.718;2023-03-23T17:15:04;18.90;62.30
13928;DHT22;7036;50.834;4.718;2023-03-23T17:17:31;18.90;62.10
13928;DHT22;7036;50.834;4.718;2023-03-23T17:19:58;18.90;62.10
13928;DHT22;7036;50.834;4.718;2023-03-23T17:22:26;18.90;62.10
13928;DHT22;7036;50.834;4.718;2023-03-23T17:24:54;19.00;62.40
13928;DHT22;7036;50.834;4.718;2023-03-23T17:27:21;19.00;62.20
13928;DHT22;7036;50.834;4.718;2023-03-23T17:29:48;19.00;62.40
13928;DHT22;7036;50.834;4.718;2023-03-23T17:32:16;19.00;62.70
13928;DHT22;7036;50.834;4.718;2023-03-23T17:34:45;19.10;63.30